createdAt,value
2022-09-17T00:03:28.584Z,100667.31
2022-09-17T00:08:29.986Z,100678.50
2022-09-17T00:13:31.305Z,100679.63
2022-09-17T00:18:32.944Z,100673.16
2022-09-17T00:23:36.042Z,100675.50
2022-09-17T00:28:37.369Z,100664.53
2022-09-17T00:33:38.692Z,100682.69
2022-09-17T00:38:40.063Z,100674.53
2022-09-17T00:43:52.613Z,100685.84
2022-09-17T00:48:54.600Z,100678.66
2022-09-17T00:53:56.465Z,100678.09
2022-09-17T00:58:57.965Z,100663.53
2022-09-17T01:03:59.776Z,100669.97
2022-09-17T01:09:08.932Z,100680.81
2022-09-17T01:14:16.040Z,100681.03
2022-09-17T01:19:22.155Z,100683.84
2022-09-17T01:24:23.431Z,100677.84
2022-09-17T01:29:43.554Z,100688.50
2022-09-17T01:34:50.653Z,100693.34
2022-09-17T01:40:10.585Z,100693.97
2022-09-17T01:45:38.071Z,100701.63
2022-09-17T01:50:46.716Z,100698.97
2022-09-17T01:55:49.194Z,100704.13
2022-09-17T02:00:53.211Z,100700.91
2022-09-17T02:05:58.403Z,100694.66
2022-09-17T02:11:03.713Z,100694.22
2022-09-17T02:16:12.514Z,100704.34
2022-09-17T02:21:21.930Z,100703.72
2022-09-17T02:26:26.206Z,100687.03
2022-09-17T02:31:27.569Z,100698.59
2022-09-17T02:36:29.708Z,100699.44
2022-09-17T02:41:57.434Z,100699.28
2022-09-17T02:47:07.952Z,100704.06
2022-09-17T02:52:35.347Z,100703.81
2022-09-17T02:57:42.684Z,100706.22
2022-09-17T03:02:47.275Z,100713.28
2022-09-17T03:07:48.710Z,100712.03
2022-09-17T03:12:50.421Z,100713.47
2022-09-17T03:17:53.475Z,100722.25
2022-09-17T03:22:55.010Z,100721.41
2022-09-17T03:27:56.335Z,100724.47
2022-09-17T03:32:57.645Z,100720.63
2022-09-17T03:37:58.945Z,100721.22
2022-09-17T03:43:00.252Z,100723.75
2022-09-17T03:48:01.693Z,100733.88
2022-09-17T03:53:02.992Z,100739.97
2022-09-17T03:58:04.339Z,100736.72
2022-09-17T04:03:06.008Z,100734.09
2022-09-17T04:08:07.337Z,100740.63
2022-09-17T04:13:09.496Z,100741.72
2022-09-17T04:18:11.014Z,100739.31
2022-09-17T04:23:12.383Z,100745.94
2022-09-17T04:28:13.764Z,100749.59
2022-09-17T04:33:15.072Z,100748.75
2022-09-17T04:38:18.602Z,100752.50
2022-09-17T04:43:20.003Z,100759.53
2022-09-17T04:48:21.332Z,100764.75
2022-09-17T04:53:22.680Z,100771.03
2022-09-17T04:58:23.997Z,100773.13
2022-09-17T05:03:25.433Z,100774.34
2022-09-17T05:08:26.736Z,100768.63
2022-09-17T05:13:28.146Z,100769.31
2022-09-17T05:18:29.572Z,100770.63
2022-09-17T05:23:30.908Z,100775.72
2022-09-17T05:28:32.308Z,100780.41
2022-09-17T05:33:33.770Z,100782.28
2022-09-17T05:38:35.104Z,100791.63
2022-09-17T05:43:36.574Z,100794.22
2022-09-17T05:48:37.907Z,100807.66
2022-09-17T05:53:39.391Z,100806.94
2022-09-17T05:58:40.708Z,100795.75
2022-09-17T06:03:42.325Z,100816.47
2022-09-17T06:08:43.620Z,100813.16
2022-09-17T06:13:45.004Z,100816.59
2022-09-17T06:18:46.311Z,100815.00
2022-09-17T06:23:47.888Z,100813.78
2022-09-17T06:28:49.506Z,100821.84
2022-09-17T06:33:51.213Z,100828.09
2022-09-17T06:38:52.516Z,100827.47
2022-09-17T06:43:56.838Z,100844.03
2022-09-17T06:48:58.200Z,100838.34
2022-09-17T06:54:00.841Z,100831.94
2022-09-17T06:59:02.234Z,100834.19
2022-09-17T07:04:03.539Z,100841.81
2022-09-17T07:09:09.099Z,100835.94
2022-09-17T07:14:12.143Z,100840.31
2022-09-17T07:19:14.959Z,100838.19
2022-09-17T07:24:16.383Z,100828.31
2022-09-17T07:29:17.698Z,100829.91
2022-09-17T07:34:19.032Z,100834.34
2022-09-17T07:39:20.320Z,100836.19
2022-09-17T07:44:22.593Z,100846.88
2022-09-17T07:49:23.902Z,100862.66
2022-09-17T07:54:25.650Z,100857.53
2022-09-17T07:59:26.943Z,100862.13
2022-09-17T08:04:28.268Z,100854.06
2022-09-17T08:09:29.560Z,100845.84
2022-09-17T08:14:30.927Z,100847.53
2022-09-17T08:19:32.865Z,100848.25
2022-09-17T08:24:34.155Z,100854.56
2022-09-17T08:29:35.577Z,100868.84
2022-09-17T08:34:37.144Z,100856.53
2022-09-17T08:39:38.440Z,100857.66
2022-09-17T08:44:41.791Z,100858.25
2022-09-17T08:49:49.890Z,100857.56
2022-09-17T08:54:53.969Z,100859.59
2022-09-17T09:00:09.913Z,100855.63
2022-09-17T09:05:16.979Z,100861.47
2022-09-17T09:10:22.393Z,100860.16
2022-09-17T09:15:29.393Z,100858.34
2022-09-17T09:20:35.603Z,100858.63
2022-09-17T09:25:42.337Z,100853.88
2022-09-17T09:30:52.508Z,100863.31
2022-09-17T09:35:53.889Z,100860.66
2022-09-17T09:41:00.459Z,100850.44
2022-09-17T09:46:14.290Z,100855.13
2022-09-17T09:51:20.451Z,100859.34
2022-09-17T09:56:36.966Z,100869.34
2022-09-17T10:01:40.380Z,100845.06
2022-09-17T10:06:41.869Z,100849.03
2022-09-17T10:11:44.197Z,100854.69
2022-09-17T10:16:45.500Z,100849.81
2022-09-17T10:21:46.900Z,100848.66
2022-09-17T10:26:48.391Z,100847.44
2022-09-17T10:31:54.064Z,100834.66
2022-09-17T10:36:58.729Z,100832.72
2022-09-17T10:42:13.637Z,100833.19
2022-09-17T10:47:19.960Z,100830.06
2022-09-17T10:52:29.350Z,100828.03
2022-09-17T10:58:05.960Z,100822.84
2022-09-17T11:03:25.910Z,100824.22
2022-09-17T11:08:39.408Z,100808.47
2022-09-17T11:13:48.318Z,100814.53
2022-09-17T11:18:52.680Z,100850.19
2022-09-17T11:23:53.965Z,100868.03
2022-09-17T11:29:07.348Z,100848.56
2022-09-17T11:34:20.290Z,100835.91
2022-09-17T11:39:41.983Z,100828.56
2022-09-17T11:44:55.450Z,100838.00
2022-09-17T11:50:01.610Z,100832.56
2022-09-17T11:55:09.653Z,100820.31
2022-09-17T12:00:18.585Z,100810.81
2022-09-17T12:05:22.714Z,100808.81
2022-09-17T12:10:24.044Z,100795.41
2022-09-17T12:15:27.866Z,100802.09
2022-09-17T12:20:33.107Z,100792.28
2022-09-17T12:25:41.666Z,100782.63
2022-09-17T12:30:45.148Z,100772.22
2022-09-17T12:36:05.223Z,100787.72
2022-09-17T12:41:07.021Z,100788.88
2022-09-17T12:46:14.509Z,100804.63
2022-09-17T12:51:18.007Z,100793.66
2022-09-17T12:56:27.279Z,100798.75
2022-09-17T13:01:32.992Z,100800.25
2022-09-17T13:06:46.211Z,100821.22
2022-09-17T13:11:58.321Z,100832.63
2022-09-17T13:16:59.598Z,100821.66
2022-09-17T13:22:03.711Z,100816.13
2022-09-17T13:27:05.757Z,100810.38
2022-09-17T13:32:07.061Z,100803.91
2022-09-17T13:37:22.439Z,100793.66
2022-09-17T13:42:29.050Z,100790.66
2022-09-17T13:47:48.086Z,100784.34
2022-09-17T13:52:51.011Z,100787.47
2022-09-17T13:57:52.397Z,100783.50
2022-09-17T14:02:53.772Z,100782.09
2022-09-17T14:08:11.889Z,100798.59
2022-09-17T14:13:32.121Z,100798.09
2022-09-17T14:18:34.468Z,100805.13
2022-09-17T14:23:43.737Z,100809.19
2022-09-17T14:29:00.491Z,100812.94
2022-09-17T14:34:04.648Z,100813.94
2022-09-17T14:39:10.526Z,100816.63
2022-09-17T14:44:26.901Z,100814.16
2022-09-17T14:49:30.636Z,100805.22
2022-09-17T14:54:36.049Z,100806.38
2022-09-17T14:59:43.412Z,100795.28
2022-09-17T15:04:44.743Z,100791.38
2022-09-17T15:09:46.051Z,100793.94
2022-09-17T15:14:48.020Z,100774.50
2022-09-17T15:19:54.653Z,100781.34
2022-09-17T15:24:57.685Z,100768.94
2022-09-17T15:30:04.236Z,100765.88
2022-09-17T15:35:11.339Z,100773.81
2022-09-17T15:40:14.144Z,100771.41
2022-09-17T15:45:19.779Z,100772.84
2022-09-17T15:50:24.700Z,100766.91
2022-09-17T15:55:35.220Z,100787.25
2022-09-17T16:00:36.690Z,100803.91
2022-09-17T16:05:46.182Z,100847.84
2022-09-17T16:10:47.568Z,100876.88
2022-09-17T16:15:48.970Z,100867.50
2022-09-17T16:20:50.297Z,100903.16
2022-09-17T16:25:51.835Z,100892.78
2022-09-17T16:30:53.190Z,100886.31
2022-09-17T16:35:58.280Z,100886.16
2022-09-17T16:40:59.575Z,100871.16
2022-09-17T16:46:01.856Z,100840.25
2022-09-17T16:51:10.075Z,100830.38
2022-09-17T16:56:13.222Z,100853.94
2022-09-17T17:01:15.486Z,100858.59
2022-09-17T17:06:20.569Z,100858.66
2022-09-17T17:11:21.885Z,100868.47
2022-09-17T17:16:25.313Z,100868.22
2022-09-17T17:21:26.711Z,100862.13
2022-09-17T17:26:28.008Z,100871.16
2022-09-17T17:31:29.322Z,100878.25
2022-09-17T17:36:32.001Z,100872.59
2022-09-17T17:41:33.303Z,100875.63
2022-09-17T17:46:34.639Z,100881.81
2022-09-17T17:51:36.021Z,100888.53
2022-09-17T17:56:37.334Z,100901.84
2022-09-17T18:01:38.729Z,100898.75
2022-09-17T18:06:40.139Z,100907.09
2022-09-17T18:11:41.489Z,100915.69
2022-09-17T18:16:42.863Z,100909.00
2022-09-17T18:21:44.171Z,100914.44
2022-09-17T18:26:47.407Z,100923.41
2022-09-17T18:31:48.965Z,100928.66
2022-09-17T18:36:51.475Z,100936.91
2022-09-17T18:41:52.967Z,100941.91
2022-09-17T18:46:54.321Z,100943.00
2022-09-17T18:51:55.690Z,100947.84
2022-09-17T18:56:57.016Z,100947.84
2022-09-17T19:01:58.461Z,100950.00
2022-09-17T19:06:59.881Z,100960.06
2022-09-17T19:12:01.289Z,100949.88
2022-09-17T19:17:02.589Z,100954.13
2022-09-17T19:22:03.936Z,100949.50
2022-09-17T19:27:05.337Z,100954.06
2022-09-17T19:32:06.681Z,100952.88
2022-09-17T19:37:08.399Z,100953.91
2022-09-17T19:42:09.701Z,100955.91
2022-09-17T19:47:11.008Z,100959.03
2022-09-17T19:52:12.387Z,100965.69
2022-09-17T19:57:13.897Z,100965.50
2022-09-17T20:02:15.386Z,100968.50
2022-09-17T20:07:16.728Z,100969.56
2022-09-17T20:12:18.154Z,100968.50
2022-09-17T20:17:19.545Z,100976.13
2022-09-17T20:22:20.881Z,100978.50
2022-09-17T20:27:22.201Z,100987.94
2022-09-17T20:32:23.555Z,100992.59
2022-09-17T20:38:08.366Z,100990.19
2022-09-17T20:42:46.434Z,100996.59
2022-09-17T20:47:48.142Z,100994.47
2022-09-17T20:52:49.437Z,100994.25
2022-09-17T20:57:53.624Z,100992.69
2022-09-17T21:02:56.705Z,100974.28
2022-09-17T21:07:58.002Z,100973.06
2022-09-17T21:12:59.308Z,100967.47
2022-09-17T21:18:00.622Z,100977.28
2022-09-17T21:23:02.059Z,100981.50
2022-09-17T21:28:03.392Z,100983.38
2022-09-17T21:33:04.715Z,100975.13
2022-09-17T21:38:06.230Z,100977.25
2022-09-17T21:43:09.557Z,100975.00
2022-09-17T21:48:10.863Z,100972.94
2022-09-17T21:53:12.225Z,100986.22
2022-09-17T21:58:13.549Z,100989.38
2022-09-17T22:03:14.908Z,100975.06
2022-09-17T22:08:16.274Z,100977.41
2022-09-17T22:13:17.661Z,100985.25
2022-09-17T22:18:18.972Z,100982.28
2022-09-17T22:23:20.288Z,100976.25
2022-09-17T22:28:23.674Z,100972.03
2022-09-17T22:33:26.754Z,100974.38
2022-09-17T22:38:28.050Z,100986.13
2022-09-17T22:43:29.345Z,100985.91
2022-09-17T22:48:30.680Z,100997.53
2022-09-17T22:53:32.063Z,100990.88
2022-09-17T22:58:33.401Z,100994.91
2022-09-17T23:03:34.793Z,100987.28
2022-09-17T23:08:36.480Z,100989.25
2022-09-17T23:13:37.821Z,100983.03
2022-09-17T23:18:39.335Z,100979.66
2022-09-17T23:23:41.846Z,100988.44
2022-09-17T23:28:43.287Z,100987.41
2022-09-17T23:33:45.193Z,100994.09
2022-09-17T23:38:47.371Z,100997.16
2022-09-17T23:43:50.238Z,100990.00
2022-09-17T23:48:53.382Z,100993.78
2022-09-17T23:53:55.008Z,100995.56
2022-09-17T23:58:59.143Z,100989.28
